Terminal Aerodrome Forecast
Issued by NWS

Home | Current Version | Previous Version | Text Only | Print | Product List | Glossary On
Versions: 1 2 3 4 5 6 7 8 9 10 11
000
FTUS45 KVEF 191126
TAFHND
TAF
KHND 191126Z 1912/2012 22032G42KT P6SM SKC
     FM191400 23024G34KT P6SM SCT100
     FM191800 26018G26KT P6SM BKN100
     FM200400 28013KT P6SM SCT120=

USA.gov is the U.S. government's official web portal to all federal, state and local government web resources and services.